createdAt,value
2024-01-01T00:01:23.197Z,93343.31
2024-01-01T00:03:51.969Z,93346.81
2024-01-01T00:06:20.820Z,93344.03
2024-01-01T00:08:49.425Z,93357.41
2024-01-01T00:11:18.056Z,93345.94
2024-01-01T00:13:46.792Z,93351.28
2024-01-01T00:16:17.531Z,93353.00
2024-01-01T00:18:46.542Z,93340.53
2024-01-01T00:21:15.242Z,93346.50
2024-01-01T00:23:43.983Z,93341.59
2024-01-01T00:26:12.658Z,93341.22
2024-01-01T00:28:41.414Z,93362.59
2024-01-01T00:31:10.035Z,93352.38
2024-01-01T00:33:38.752Z,93356.09
2024-01-01T00:36:07.768Z,93365.47
2024-01-01T00:38:36.412Z,93361.91
2024-01-01T00:41:05.159Z,93353.53
2024-01-01T00:43:35.125Z,93343.13
2024-01-01T00:46:03.625Z,93340.19
2024-01-01T00:48:32.232Z,93356.38
2024-01-01T00:51:00.881Z,93357.66
2024-01-01T00:53:30.064Z,93355.66
2024-01-01T00:55:58.823Z,93339.69
2024-01-01T00:58:27.477Z,93353.44
2024-01-01T01:00:58.724Z,93348.44
2024-01-01T01:03:27.430Z,93340.13
2024-01-01T01:05:56.778Z,93341.00
2024-01-01T01:08:27.077Z,93342.69
2024-01-01T01:10:55.833Z,93337.75
2024-01-01T01:13:24.543Z,93331.09
2024-01-01T01:15:53.239Z,93344.78
2024-01-01T01:18:21.970Z,93347.88
2024-01-01T01:20:50.808Z,93349.00
2024-01-01T01:23:19.544Z,93348.22
2024-01-01T01:25:48.197Z,93353.13
2024-01-01T01:28:26.644Z,93357.13
2024-01-01T01:30:55.235Z,93347.88
2024-01-01T01:33:24.067Z,93360.53
2024-01-01T01:35:52.812Z,93361.78
2024-01-01T01:38:21.578Z,93365.13
2024-01-01T01:40:50.235Z,93360.44
2024-01-01T01:43:23.767Z,93365.88
2024-01-01T01:45:53.002Z,93376.91
2024-01-01T01:48:22.344Z,93374.00
2024-01-01T01:50:52.853Z,93394.00
2024-01-01T01:53:26.542Z,93388.69
2024-01-01T01:55:59.451Z,93403.91
2024-01-01T01:58:28.940Z,93400.78
2024-01-01T02:00:58.250Z,93398.50
2024-01-01T02:03:27.133Z,93397.44
2024-01-01T02:05:57.646Z,93406.53
2024-01-01T02:08:26.636Z,93402.09
2024-01-01T02:10:55.700Z,93410.41
2024-01-01T02:13:29.229Z,93418.50
2024-01-01T02:15:57.846Z,93411.78
2024-01-01T02:18:28.143Z,93429.41
2024-01-01T02:20:58.821Z,93418.50
2024-01-01T02:23:27.612Z,93420.91
2024-01-01T02:25:56.322Z,93417.91
2024-01-01T02:28:25.121Z,93411.31
2024-01-01T02:30:53.961Z,93414.50
2024-01-01T02:33:22.679Z,93412.19
2024-01-01T02:35:51.428Z,93419.63
2024-01-01T02:38:20.096Z,93429.25
2024-01-01T02:40:48.777Z,93431.41
2024-01-01T02:43:17.496Z,93435.34
2024-01-01T02:45:46.097Z,93425.91
2024-01-01T02:48:14.930Z,93432.97
2024-01-01T02:50:43.760Z,93427.47
2024-01-01T02:53:12.496Z,93425.72
2024-01-01T02:55:41.653Z,93437.94
2024-01-01T02:58:10.392Z,93438.91
2024-01-01T03:00:39.296Z,93441.25
2024-01-01T03:03:08.077Z,93443.81
2024-01-01T03:05:36.853Z,93438.31
2024-01-01T03:08:06.011Z,93441.47
2024-01-01T03:10:34.788Z,93448.63
2024-01-01T03:13:03.650Z,93446.22
2024-01-01T03:15:32.542Z,93449.53
2024-01-01T03:18:01.374Z,93455.03
2024-01-01T03:20:33.751Z,93442.06
2024-01-01T03:23:02.379Z,93449.16
2024-01-01T03:25:31.027Z,93439.31
2024-01-01T03:27:59.684Z,93452.19
2024-01-01T03:30:28.316Z,93450.44
2024-01-01T03:32:57.112Z,93452.97
2024-01-01T03:35:25.928Z,93458.09
2024-01-01T03:37:54.591Z,93449.25
2024-01-01T03:40:23.345Z,93442.53
2024-01-01T03:42:51.959Z,93456.59
2024-01-01T03:45:21.020Z,93445.03
2024-01-01T03:47:49.276Z,93459.19
2024-01-01T03:50:19.030Z,93451.53
2024-01-01T03:52:48.001Z,93450.91
2024-01-01T03:55:17.624Z,93450.72
2024-01-01T03:57:47.049Z,93449.31
2024-01-01T04:00:16.007Z,93453.22
2024-01-01T04:02:44.825Z,93453.59
2024-01-01T04:05:13.019Z,93457.97
2024-01-01T04:07:41.689Z,93463.06
2024-01-01T04:10:11.288Z,93464.06
2024-01-01T04:12:39.987Z,93463.28
2024-01-01T04:15:09.118Z,93456.59
2024-01-01T04:17:37.931Z,93465.13
2024-01-01T04:20:13.128Z,93472.59
2024-01-01T04:22:45.440Z,93468.50
2024-01-01T04:25:14.236Z,93486.75
2024-01-01T04:27:42.916Z,93494.47
2024-01-01T04:30:13.758Z,93505.47
2024-01-01T04:32:43.831Z,93494.66
2024-01-01T04:35:12.897Z,93497.81
2024-01-01T04:37:41.605Z,93511.22
2024-01-01T04:40:10.600Z,93512.41
2024-01-01T04:42:39.305Z,93514.56
2024-01-01T04:45:08.267Z,93509.06
2024-01-01T04:47:37.138Z,93513.00
2024-01-01T04:50:06.854Z,93515.97
2024-01-01T04:52:35.543Z,93519.69
2024-01-01T04:55:04.218Z,93519.09
2024-01-01T04:57:32.820Z,93521.66
2024-01-01T05:00:01.544Z,93527.53
2024-01-01T05:02:30.179Z,93523.63
2024-01-01T05:04:58.928Z,93516.94
2024-01-01T05:07:27.938Z,93525.41
2024-01-01T05:09:56.612Z,93529.72
2024-01-01T05:12:24.564Z,93535.19
2024-01-01T05:14:52.964Z,93533.81
2024-01-01T05:17:22.138Z,93540.25
2024-01-01T05:19:52.810Z,93542.41
2024-01-01T05:22:21.497Z,93538.59
2024-01-01T05:24:50.168Z,93545.69
2024-01-01T05:27:18.170Z,93543.09
2024-01-01T05:29:47.003Z,93538.91
2024-01-01T05:32:16.176Z,93548.53
2024-01-01T05:34:45.225Z,93545.09
2024-01-01T05:37:13.972Z,93555.03
2024-01-01T05:39:42.583Z,93553.38
2024-01-01T05:42:11.323Z,93553.81
2024-01-01T05:44:40.522Z,93558.38
2024-01-01T05:47:09.199Z,93562.63
2024-01-01T05:49:38.614Z,93563.25
2024-01-01T05:52:07.444Z,93566.47
2024-01-01T05:54:36.090Z,93571.13
2024-01-01T05:57:04.961Z,93578.22
2024-01-01T05:59:33.620Z,93572.28
2024-01-01T06:02:02.294Z,93572.34
2024-01-01T06:04:31.006Z,93569.72
2024-01-01T06:06:59.595Z,93581.28
2024-01-01T06:09:28.210Z,93578.69
2024-01-01T06:11:57.113Z,93586.22
2024-01-01T06:14:25.939Z,93586.69
2024-01-01T06:16:54.700Z,93573.94
2024-01-01T06:19:23.499Z,93588.75
2024-01-01T06:21:52.211Z,93591.28
2024-01-01T06:24:20.848Z,93594.25
2024-01-01T06:26:49.586Z,93594.53
2024-01-01T06:29:18.305Z,93600.56
2024-01-01T06:31:47.005Z,93596.53
2024-01-01T06:34:15.719Z,93598.56
2024-01-01T06:36:44.376Z,93602.41
2024-01-01T06:39:12.980Z,93608.00
2024-01-01T06:41:41.652Z,93606.94
2024-01-01T06:44:10.273Z,93610.44
2024-01-01T06:46:39.054Z,93612.09
2024-01-01T06:49:07.783Z,93624.50
2024-01-01T06:51:36.528Z,93617.50
2024-01-01T06:54:05.231Z,93630.66
2024-01-01T06:56:33.853Z,93622.25
2024-01-01T06:59:02.546Z,93621.19
2024-01-01T07:01:31.194Z,93626.72
2024-01-01T07:03:59.914Z,93634.44
2024-01-01T07:06:28.502Z,93629.09
2024-01-01T07:08:57.138Z,93624.69
2024-01-01T07:11:25.776Z,93616.66
2024-01-01T07:13:54.432Z,93633.16
2024-01-01T07:16:23.098Z,93626.50
2024-01-01T07:18:51.814Z,93632.06
2024-01-01T07:21:20.604Z,93633.03
2024-01-01T07:23:49.320Z,93631.34
2024-01-01T07:26:18.061Z,93617.78
2024-01-01T07:28:46.848Z,93629.88
2024-01-01T07:31:15.615Z,93635.44
2024-01-01T07:33:44.464Z,93634.81
2024-01-01T07:36:16.197Z,93643.00
2024-01-01T07:38:45.576Z,93629.75
2024-01-01T07:41:14.538Z,93647.31
2024-01-01T07:43:43.402Z,93651.59
2024-01-01T07:46:12.763Z,93649.78
2024-01-01T07:48:41.433Z,93652.25
2024-01-01T07:51:10.615Z,93656.13
2024-01-01T07:53:39.323Z,93651.09
2024-01-01T07:56:08.541Z,93651.69
2024-01-01T07:58:37.371Z,93650.78
2024-01-01T08:01:06.504Z,93659.16
2024-01-01T08:03:35.389Z,93656.03
2024-01-01T08:06:04.298Z,93657.66
2024-01-01T08:08:32.959Z,93659.22
2024-01-01T08:11:01.711Z,93664.44
2024-01-01T08:13:30.475Z,93665.44
2024-01-01T08:15:59.191Z,93661.50
2024-01-01T08:18:28.050Z,93668.97
2024-01-01T08:20:57.150Z,93668.66
2024-01-01T08:23:26.113Z,93675.03
2024-01-01T08:25:54.870Z,93665.09
2024-01-01T08:28:23.458Z,93669.19
2024-01-01T08:30:52.334Z,93672.19
2024-01-01T08:33:21.375Z,93673.47
2024-01-01T08:35:50.114Z,93669.19
2024-01-01T08:38:18.977Z,93680.09
2024-01-01T08:40:47.860Z,93683.41
2024-01-01T08:43:16.622Z,93676.63
2024-01-01T08:45:45.268Z,93682.31
2024-01-01T08:48:14.001Z,93688.34
2024-01-01T08:50:43.020Z,93692.00
2024-01-01T08:53:11.720Z,93691.03
2024-01-01T08:55:45.566Z,93683.59
2024-01-01T08:58:14.349Z,93700.69
2024-01-01T09:00:43.051Z,93692.00
2024-01-01T09:03:11.775Z,93695.50
2024-01-01T09:05:40.784Z,93702.72
2024-01-01T09:08:10.021Z,93694.53
2024-01-01T09:10:38.879Z,93709.22
2024-01-01T09:13:07.817Z,93708.44
2024-01-01T09:15:36.552Z,93709.50
2024-01-01T09:18:05.550Z,93720.25
2024-01-01T09:20:33.815Z,93725.78
2024-01-01T09:23:02.810Z,93726.56
2024-01-01T09:25:31.549Z,93727.34
2024-01-01T09:28:00.174Z,93739.19
2024-01-01T09:30:29.138Z,93747.09
2024-01-01T09:32:57.793Z,93743.78
2024-01-01T09:35:27.120Z,93749.47
2024-01-01T09:37:56.196Z,93747.09
2024-01-01T09:40:24.948Z,93755.16
2024-01-01T09:42:53.823Z,93748.53
2024-01-01T09:45:22.607Z,93754.06
2024-01-01T09:47:51.660Z,93756.59
2024-01-01T09:50:20.375Z,93751.22
2024-01-01T09:52:49.272Z,93755.66
2024-01-01T09:55:18.045Z,93744.13
2024-01-01T09:57:47.528Z,93759.13
2024-01-01T10:00:26.414Z,93760.41
2024-01-01T10:03:09.902Z,93761.97
2024-01-01T10:05:39.226Z,93769.88
2024-01-01T10:08:13.021Z,93766.06
2024-01-01T10:10:42.644Z,93771.91
2024-01-01T10:13:18.356Z,93771.09
2024-01-01T10:15:48.336Z,93765.22
2024-01-01T10:18:19.172Z,93755.91
2024-01-01T10:20:47.972Z,93775.16
2024-01-01T10:23:23.055Z,93769.44
2024-01-01T10:26:03.538Z,93771.47
2024-01-01T10:28:34.424Z,93767.53
2024-01-01T10:31:04.557Z,93765.50
2024-01-01T10:33:34.839Z,93771.19
2024-01-01T10:36:07.040Z,93770.09
2024-01-01T10:38:37.996Z,93770.28
2024-01-01T10:41:08.521Z,93770.75
2024-01-01T10:43:38.972Z,93770.78
2024-01-01T10:46:08.221Z,93767.00
2024-01-01T10:48:41.250Z,93770.84
2024-01-01T10:51:44.647Z,93771.16
2024-01-01T10:54:57.177Z,93775.09
2024-01-01T10:57:40.839Z,93775.25
2024-01-01T11:00:30.555Z,93772.88
2024-01-01T11:02:59.765Z,93775.09
2024-01-01T11:05:36.383Z,93776.16
2024-01-01T11:08:05.615Z,93772.16
2024-01-01T11:10:46.189Z,93784.16
2024-01-01T11:13:35.123Z,93784.44
2024-01-01T11:16:07.592Z,93786.63
2024-01-01T11:18:43.669Z,93798.28
2024-01-01T11:21:29.353Z,93789.56
2024-01-01T11:24:19.668Z,93797.44
2024-01-01T11:26:47.808Z,93798.34
2024-01-01T11:29:19.823Z,93787.53
2024-01-01T11:31:48.485Z,93799.84
2024-01-01T11:34:24.884Z,93807.63
2024-01-01T11:36:56.279Z,93806.22
2024-01-01T11:39:27.222Z,93805.13
2024-01-01T11:41:59.384Z,93806.38
2024-01-01T11:44:28.346Z,93806.53
2024-01-01T11:46:57.886Z,93818.03
2024-01-01T11:49:27.021Z,93819.59
2024-01-01T11:52:07.191Z,93819.97
2024-01-01T11:54:36.657Z,93821.56
2024-01-01T11:57:05.465Z,93820.28
2024-01-01T11:59:34.356Z,93823.19
2024-01-01T12:02:03.144Z,93830.56
2024-01-01T12:04:31.926Z,93833.09
2024-01-01T12:07:00.759Z,93834.59
2024-01-01T12:09:29.406Z,93833.25
2024-01-01T12:12:15.045Z,93837.28
2024-01-01T12:14:43.754Z,93828.78
2024-01-01T12:17:12.396Z,93832.06
2024-01-01T12:19:41.734Z,93836.59
2024-01-01T12:22:22.766Z,93844.00
2024-01-01T12:24:59.596Z,93841.00
2024-01-01T12:27:31.331Z,93843.53
2024-01-01T12:30:01.102Z,93839.28
2024-01-01T12:32:30.127Z,93844.06
2024-01-01T12:34:58.910Z,93849.06
2024-01-01T12:37:28.347Z,93835.63
2024-01-01T12:39:57.036Z,93839.25
2024-01-01T12:42:25.482Z,93850.66
2024-01-01T12:44:54.330Z,93844.84
2024-01-01T12:47:23.108Z,93843.41
2024-01-01T12:49:51.832Z,93837.56
2024-01-01T12:52:20.608Z,93846.56
2024-01-01T12:54:49.321Z,93848.81
2024-01-01T12:57:17.908Z,93850.81
2024-01-01T12:59:46.679Z,93851.53
2024-01-01T13:02:15.363Z,93853.16
2024-01-01T13:04:44.027Z,93851.00
2024-01-01T13:07:12.657Z,93844.50
2024-01-01T13:09:41.490Z,93859.53
2024-01-01T13:12:10.295Z,93861.34
2024-01-01T13:14:38.944Z,93866.59
2024-01-01T13:17:07.792Z,93866.97
2024-01-01T13:19:36.468Z,93857.69
2024-01-01T13:22:05.087Z,93862.66
2024-01-01T13:24:36.603Z,93861.72
2024-01-01T13:27:05.560Z,93864.88
2024-01-01T13:29:34.287Z,93876.03
2024-01-01T13:32:03.173Z,93875.59
2024-01-01T13:34:31.863Z,93874.44
2024-01-01T13:37:00.448Z,93889.34
2024-01-01T13:39:29.189Z,93891.34
2024-01-01T13:41:59.302Z,93881.03
2024-01-01T13:44:27.991Z,93878.38
2024-01-01T13:46:56.786Z,93894.88
2024-01-01T13:49:25.474Z,93889.47
2024-01-01T13:51:54.509Z,93867.75
2024-01-01T13:54:23.153Z,93896.63
2024-01-01T13:56:52.575Z,93891.88
2024-01-01T13:59:21.748Z,93900.16
2024-01-01T14:01:50.668Z,93904.63
2024-01-01T14:04:19.533Z,93903.38
2024-01-01T14:06:48.241Z,93913.34
2024-01-01T14:09:19.807Z,93904.47
2024-01-01T14:11:50.943Z,93909.44
2024-01-01T14:14:19.839Z,93912.25
2024-01-01T14:16:49.404Z,93907.34
2024-01-01T14:19:18.317Z,93909.41
2024-01-01T14:21:47.103Z,93912.22
2024-01-01T14:24:15.698Z,93913.94
2024-01-01T14:26:45.101Z,93912.31
2024-01-01T14:29:13.865Z,93910.03
2024-01-01T14:31:42.960Z,93908.63
2024-01-01T14:34:11.592Z,93918.03
2024-01-01T14:36:40.285Z,93908.34
2024-01-01T14:39:11.098Z,93910.72
2024-01-01T14:41:42.095Z,93904.19
2024-01-01T14:44:10.803Z,93914.06
2024-01-01T14:46:39.449Z,93915.16
2024-01-01T14:49:08.339Z,93918.09
2024-01-01T14:51:40.025Z,93909.13
2024-01-01T14:54:08.751Z,93912.41
2024-01-01T14:56:43.913Z,93912.78
2024-01-01T14:59:15.145Z,93906.00
2024-01-01T15:01:46.906Z,93915.94
2024-01-01T15:04:15.597Z,93923.38
2024-01-01T15:06:44.293Z,93907.66
2024-01-01T15:09:14.002Z,93926.81
2024-01-01T15:11:42.811Z,93920.63
2024-01-01T15:14:11.605Z,93922.34
2024-01-01T15:16:42.558Z,93916.41
2024-01-01T15:19:11.578Z,93912.84
2024-01-01T15:21:41.299Z,93900.41
2024-01-01T15:24:09.942Z,93922.63
2024-01-01T15:26:38.670Z,93917.22
2024-01-01T15:29:07.464Z,93919.81
2024-01-01T15:31:36.689Z,93912.19
2024-01-01T15:34:05.426Z,93917.56
2024-01-01T15:36:34.114Z,93921.38
2024-01-01T15:39:04.336Z,93923.25
2024-01-01T15:41:32.986Z,93931.75
2024-01-01T15:44:02.011Z,93932.53
2024-01-01T15:46:30.694Z,93926.75
2024-01-01T15:48:59.761Z,93929.00
2024-01-01T15:51:38.431Z,93929.50
2024-01-01T15:54:08.948Z,93941.53
2024-01-01T15:56:42.851Z,93942.41
2024-01-01T15:59:11.474Z,93945.88
2024-01-01T16:01:40.238Z,93956.75
2024-01-01T16:04:08.951Z,93962.97
2024-01-01T16:06:37.624Z,93968.00
2024-01-01T16:09:06.223Z,93963.19
2024-01-01T16:11:34.956Z,93963.56
2024-01-01T16:14:03.898Z,93978.41
2024-01-01T16:16:35.861Z,93978.34
2024-01-01T16:19:13.769Z,93978.50
2024-01-01T16:21:46.291Z,93959.66
2024-01-01T16:24:14.927Z,93967.44
2024-01-01T16:26:43.508Z,93965.69
2024-01-01T16:29:12.922Z,93970.75
2024-01-01T16:31:44.287Z,93971.75
2024-01-01T16:34:13.264Z,93974.78
2024-01-01T16:36:44.183Z,93978.09
2024-01-01T16:39:16.695Z,93980.53
2024-01-01T16:41:45.644Z,93988.88
2024-01-01T16:44:14.754Z,93975.69
2024-01-01T16:46:43.391Z,93991.22
2024-01-01T16:49:12.347Z,93983.41
2024-01-01T16:51:41.400Z,93982.81
2024-01-01T16:54:09.972Z,93985.44
2024-01-01T16:56:38.722Z,93984.84
2024-01-01T16:59:07.415Z,93984.47
2024-01-01T17:01:36.065Z,93994.34
2024-01-01T17:04:04.776Z,94002.63
2024-01-01T17:06:33.686Z,93995.34
2024-01-01T17:09:02.360Z,94010.75
2024-01-01T17:11:31.407Z,94003.38
2024-01-01T17:14:00.298Z,94001.53
2024-01-01T17:16:29.033Z,93997.59
2024-01-01T17:18:58.335Z,93989.75
2024-01-01T17:21:27.179Z,93989.47
2024-01-01T17:23:55.853Z,93991.84
2024-01-01T17:26:24.663Z,93991.53
2024-01-01T17:28:53.520Z,93996.28
2024-01-01T17:31:22.151Z,93999.00
2024-01-01T17:33:50.860Z,93998.19
2024-01-01T17:36:19.905Z,93991.06
2024-01-01T17:38:51.121Z,94006.56
2024-01-01T17:41:19.872Z,94005.69
2024-01-01T17:43:48.585Z,94004.59
2024-01-01T17:46:18.258Z,94010.78
2024-01-01T17:48:47.029Z,94015.56
2024-01-01T17:51:15.718Z,94017.13
2024-01-01T17:53:44.454Z,94017.81
2024-01-01T17:56:13.331Z,94020.38
2024-01-01T17:58:42.086Z,94020.19
2024-01-01T18:01:10.792Z,94013.22
2024-01-01T18:03:40.328Z,94024.13
2024-01-01T18:06:08.529Z,94033.16
2024-01-01T18:08:37.824Z,94024.19
2024-01-01T18:11:06.606Z,94013.75
2024-01-01T18:13:35.296Z,94011.13
2024-01-01T18:16:03.504Z,94007.69
2024-01-01T18:18:32.314Z,94000.38
2024-01-01T18:21:03.207Z,94004.69
2024-01-01T18:23:31.883Z,94004.31
2024-01-01T18:26:00.631Z,93997.94
2024-01-01T18:28:30.762Z,94014.34
2024-01-01T18:30:59.681Z,94012.78
2024-01-01T18:33:28.403Z,94002.34
2024-01-01T18:35:57.039Z,94010.84
2024-01-01T18:38:26.109Z,94013.13
2024-01-01T18:40:54.715Z,94013.50
2024-01-01T18:43:23.472Z,94018.94
2024-01-01T18:45:52.108Z,94015.06
2024-01-01T18:48:21.766Z,94017.88
2024-01-01T18:50:50.610Z,94024.19
2024-01-01T18:53:19.342Z,94017.34
2024-01-01T18:55:48.033Z,94017.59
2024-01-01T18:58:16.680Z,94024.97
2024-01-01T19:00:45.506Z,94021.66
2024-01-01T19:03:14.527Z,94030.44
2024-01-01T19:05:43.455Z,94029.56
2024-01-01T19:08:12.224Z,94022.53
2024-01-01T19:10:40.983Z,94026.56
2024-01-01T19:13:09.706Z,94030.16
2024-01-01T19:15:39.399Z,94024.84
2024-01-01T19:18:11.552Z,94020.69
2024-01-01T19:20:40.968Z,94034.13
2024-01-01T19:23:13.238Z,94031.41
2024-01-01T19:25:42.163Z,94031.97
2024-01-01T19:28:10.766Z,94038.56
2024-01-01T19:30:39.616Z,94036.69
2024-01-01T19:33:10.822Z,94023.88
2024-01-01T19:35:40.044Z,94032.09
2024-01-01T19:38:08.666Z,94040.91
2024-01-01T19:40:37.475Z,94043.31
2024-01-01T19:43:06.454Z,94035.44
2024-01-01T19:45:35.220Z,94027.72
2024-01-01T19:48:04.393Z,94035.38
2024-01-01T19:50:33.162Z,94031.59
2024-01-01T19:53:03.202Z,94025.72
2024-01-01T19:55:32.006Z,94016.56
2024-01-01T19:58:00.609Z,94023.78
2024-01-01T20:00:29.268Z,94019.34
2024-01-01T20:02:59.004Z,94023.94
2024-01-01T20:05:27.718Z,94021.75
2024-01-01T20:07:56.368Z,94025.88
2024-01-01T20:10:25.048Z,94020.91
2024-01-01T20:13:00.566Z,94019.94
2024-01-01T20:15:29.601Z,94017.16
2024-01-01T20:17:58.452Z,94015.81
2024-01-01T20:20:27.372Z,93997.84
2024-01-01T20:22:56.171Z,94011.69
2024-01-01T20:25:24.925Z,94002.16
2024-01-01T20:27:54.153Z,94004.19
2024-01-01T20:30:22.940Z,94008.94
2024-01-01T20:32:51.889Z,94007.78
2024-01-01T20:35:22.848Z,94005.44
2024-01-01T20:37:51.573Z,93997.00
2024-01-01T20:40:20.179Z,94005.31
2024-01-01T20:42:51.025Z,94004.78
2024-01-01T20:45:19.826Z,94004.88
2024-01-01T20:47:48.565Z,94006.66
2024-01-01T20:50:17.850Z,94004.88
2024-01-01T20:52:53.093Z,94006.22
2024-01-01T20:55:25.037Z,94006.88
2024-01-01T20:57:53.787Z,94011.94
2024-01-01T21:00:22.404Z,93999.34
2024-01-01T21:02:51.877Z,94009.34
2024-01-01T21:05:20.717Z,94007.44
2024-01-01T21:07:49.667Z,94011.00
2024-01-01T21:10:18.383Z,94008.34
2024-01-01T21:12:48.555Z,94013.31
2024-01-01T21:15:17.554Z,94008.78
2024-01-01T21:17:49.150Z,94008.03
2024-01-01T21:20:18.139Z,94003.69
2024-01-01T21:22:46.932Z,94015.31
2024-01-01T21:25:15.663Z,94013.91
2024-01-01T21:27:45.307Z,94005.84
2024-01-01T21:30:14.080Z,94021.53
2024-01-01T21:32:42.817Z,94022.13
2024-01-01T21:35:18.039Z,94013.44
2024-01-01T21:37:46.897Z,94020.09
2024-01-01T21:40:17.445Z,94002.94
2024-01-01T21:42:46.741Z,94004.66
2024-01-01T21:45:15.521Z,94016.97
2024-01-01T21:47:44.472Z,94015.75
2024-01-01T21:50:13.289Z,94011.38
2024-01-01T21:52:42.965Z,94002.34
2024-01-01T21:55:13.327Z,93987.59
2024-01-01T21:57:41.988Z,93996.50
2024-01-01T22:00:11.260Z,93987.44
2024-01-01T22:02:39.640Z,93999.22
2024-01-01T22:05:08.762Z,93999.38
2024-01-01T22:07:38.363Z,94005.44
2024-01-01T22:10:07.398Z,94011.34
2024-01-01T22:12:36.082Z,94004.47
2024-01-01T22:15:05.090Z,94019.22
2024-01-01T22:17:33.887Z,94018.91
2024-01-01T22:20:02.855Z,94015.00
2024-01-01T22:22:31.843Z,94016.16
2024-01-01T22:25:01.221Z,94012.66
2024-01-01T22:27:29.876Z,94016.13
2024-01-01T22:29:58.498Z,94017.47
2024-01-01T22:32:27.385Z,94023.22
2024-01-01T22:34:55.451Z,94022.38
2024-01-01T22:37:24.088Z,94032.53
2024-01-01T22:39:52.847Z,94029.44
2024-01-01T22:42:21.501Z,94033.19
2024-01-01T22:44:50.111Z,94029.59
2024-01-01T22:47:18.790Z,94031.63
2024-01-01T22:49:49.672Z,94047.19
2024-01-01T22:52:18.331Z,94047.38
2024-01-01T22:54:47.151Z,94040.94
2024-01-01T22:57:15.912Z,94045.75
2024-01-01T22:59:44.543Z,94050.00
2024-01-01T23:02:13.480Z,94055.34
2024-01-01T23:04:42.182Z,94065.44
2024-01-01T23:07:11.022Z,94054.59
2024-01-01T23:09:39.664Z,94055.84
2024-01-01T23:12:08.713Z,94054.19
2024-01-01T23:14:36.847Z,94045.56
2024-01-01T23:17:05.717Z,94056.78
2024-01-01T23:19:34.474Z,94061.84
2024-01-01T23:22:03.218Z,94049.22
2024-01-01T23:24:34.425Z,94063.53
2024-01-01T23:27:02.709Z,94067.50
2024-01-01T23:29:31.386Z,94065.19
2024-01-01T23:32:00.169Z,94063.84
2024-01-01T23:34:28.962Z,94056.72
2024-01-01T23:36:57.639Z,94064.66
2024-01-01T23:39:26.387Z,94064.38
2024-01-01T23:41:54.999Z,94064.38
2024-01-01T23:44:23.612Z,94055.16
2024-01-01T23:46:52.238Z,94069.75
2024-01-01T23:49:20.910Z,94068.97
2024-01-01T23:51:49.568Z,94070.22
2024-01-01T23:54:18.204Z,94075.56
2024-01-01T23:56:46.983Z,94077.13
2024-01-01T23:59:17.584Z,94064.56
